createdAt,value
2022-08-03T00:01:32.427Z,2.95
2022-08-03T00:03:59.470Z,2.72
2022-08-03T00:06:26.726Z,2.75
2022-08-03T00:08:53.838Z,2.42
2022-08-03T00:11:20.983Z,2.58
2022-08-03T00:13:48.111Z,2.33
2022-08-03T00:16:15.488Z,2.65
2022-08-03T00:18:42.507Z,2.35
2022-08-03T00:21:09.636Z,2.85
2022-08-03T00:23:51.301Z,3.00
2022-08-03T00:26:20.575Z,2.40
2022-08-03T00:28:47.720Z,2.60
2022-08-03T00:31:14.708Z,2.90
2022-08-03T00:33:58.151Z,2.55
2022-08-03T00:36:27.261Z,2.65
2022-08-03T00:38:54.399Z,2.60
2022-08-03T00:41:21.627Z,2.70
2022-08-03T00:43:49.088Z,2.55
2022-08-03T00:46:21.045Z,2.60
2022-08-03T00:48:50.657Z,2.83
2022-08-03T00:51:18.793Z,2.90
2022-08-03T00:53:46.245Z,3.28
2022-08-03T00:56:17.312Z,2.60
2022-08-03T00:58:45.769Z,3.00
2022-08-03T01:01:13.065Z,2.90
2022-08-03T01:03:40.528Z,2.63
2022-08-03T01:06:18.711Z,2.80
2022-08-03T01:09:00.516Z,2.75
2022-08-03T01:12:04.494Z,2.92
2022-08-03T01:14:44.192Z,2.70
2022-08-03T01:17:23.023Z,2.72
2022-08-03T01:20:09.276Z,2.78
2022-08-03T01:22:50.198Z,2.58
2022-08-03T01:25:44.809Z,2.80
2022-08-03T01:28:20.981Z,3.35
2022-08-03T01:30:48.884Z,2.97
2022-08-03T01:33:22.973Z,3.00
2022-08-03T01:36:02.340Z,2.90
2022-08-03T01:38:38.899Z,3.20
2022-08-03T01:41:09.152Z,3.20
2022-08-03T01:43:55.231Z,2.78
2022-08-03T01:46:27.903Z,2.78
2022-08-03T01:48:55.741Z,2.72
2022-08-03T01:51:23.110Z,3.22
2022-08-03T01:53:55.077Z,3.25
2022-08-03T01:56:24.854Z,3.15
2022-08-03T01:58:54.017Z,2.78
2022-08-03T02:01:22.865Z,2.63
2022-08-03T02:03:59.620Z,2.72
2022-08-03T02:06:59.942Z,3.20
2022-08-03T02:09:19.988Z,2.95
2022-08-03T02:11:48.256Z,2.92
2022-08-03T02:14:16.405Z,2.90
2022-08-03T02:16:45.623Z,2.88
2022-08-03T02:19:13.936Z,3.10
2022-08-03T02:21:56.721Z,2.80
2022-08-03T02:24:29.735Z,3.03
2022-08-03T02:26:57.788Z,2.88
2022-08-03T02:29:39.143Z,2.55
2022-08-03T02:32:11.788Z,2.95
2022-08-03T02:34:41.346Z,2.83
2022-08-03T02:37:10.477Z,2.40
2022-08-03T02:39:40.059Z,2.67
2022-08-03T02:42:12.754Z,2.20
2022-08-03T02:44:43.919Z,2.65
2022-08-03T02:47:13.269Z,2.78
2022-08-03T02:49:50.591Z,3.10
2022-08-03T02:52:21.644Z,2.28
2022-08-03T02:54:52.516Z,2.40
2022-08-03T02:57:21.147Z,2.55
2022-08-03T02:59:49.003Z,2.53
2022-08-03T03:02:18.533Z,3.33
2022-08-03T03:05:53.329Z,2.13
2022-08-03T03:07:35.325Z,2.53
2022-08-03T03:10:24.013Z,2.70
2022-08-03T03:12:53.470Z,2.30
2022-08-03T03:15:20.715Z,2.30
2022-08-03T03:17:50.155Z,2.40
2022-08-03T03:20:29.261Z,2.40
2022-08-03T03:23:00.209Z,2.05
2022-08-03T03:25:31.897Z,2.17
2022-08-03T03:28:00.165Z,1.80
2022-08-03T03:30:36.786Z,2.22
2022-08-03T03:33:03.997Z,2.13
2022-08-03T03:35:31.821Z,2.15
2022-08-03T03:38:06.659Z,2.10
2022-08-03T03:40:35.483Z,2.40
2022-08-03T03:43:02.913Z,2.00
2022-08-03T03:45:31.830Z,2.03
2022-08-03T03:48:01.164Z,1.60
2022-08-03T03:50:30.284Z,1.88
2022-08-03T03:52:57.334Z,2.17
2022-08-03T03:55:24.969Z,1.85
2022-08-03T03:57:52.015Z,2.15
2022-08-03T04:00:19.469Z,1.85
2022-08-03T04:02:47.179Z,1.50
2022-08-03T04:05:33.460Z,1.70
2022-08-03T04:08:22.859Z,1.92
2022-08-03T04:11:13.897Z,1.77
2022-08-03T04:13:56.943Z,2.20
2022-08-03T04:16:32.603Z,2.10
2022-08-03T04:19:03.177Z,1.73
2022-08-03T04:21:32.367Z,1.88
2022-08-03T04:24:02.532Z,1.60
2022-08-03T04:26:33.896Z,1.90
2022-08-03T04:29:01.703Z,1.80
2022-08-03T04:31:30.153Z,2.15
2022-08-03T04:33:57.924Z,1.83
2022-08-03T04:36:27.944Z,2.10
2022-08-03T04:39:00.811Z,2.20
2022-08-03T04:41:28.840Z,1.80
2022-08-03T04:43:58.900Z,1.88
2022-08-03T04:46:29.631Z,2.20
2022-08-03T04:48:57.501Z,1.77
2022-08-03T04:51:25.505Z,2.13
2022-08-03T04:53:52.452Z,1.83
2022-08-03T04:56:20.098Z,2.03
2022-08-03T04:58:47.159Z,2.22
2022-08-03T05:01:14.328Z,2.20
2022-08-03T05:03:41.451Z,1.90
2022-08-03T05:06:11.124Z,2.28
2022-08-03T05:08:46.411Z,2.38
2022-08-03T05:11:15.812Z,2.45
2022-08-03T05:13:43.178Z,2.00
2022-08-03T05:16:10.228Z,1.85
2022-08-03T05:18:37.307Z,1.67
2022-08-03T05:21:05.204Z,1.88
2022-08-03T05:23:32.477Z,2.00
2022-08-03T05:25:59.576Z,2.05
2022-08-03T05:28:26.615Z,1.80
2022-08-03T05:30:53.633Z,2.08
2022-08-03T05:33:20.622Z,1.83
2022-08-03T05:35:57.702Z,1.80
2022-08-03T05:38:34.794Z,1.77
2022-08-03T05:41:22.399Z,2.30
2022-08-03T05:43:55.222Z,1.70
2022-08-03T05:46:23.421Z,2.28
2022-08-03T05:48:50.943Z,2.00
2022-08-03T05:51:18.209Z,2.28
2022-08-03T05:53:45.379Z,2.03
2022-08-03T05:56:14.018Z,1.80
2022-08-03T05:58:44.051Z,1.58
2022-08-03T06:01:11.132Z,1.55
2022-08-03T06:03:38.181Z,1.90
2022-08-03T06:06:05.288Z,2.20
2022-08-03T06:08:32.365Z,1.85
2022-08-03T06:10:59.427Z,1.95
2022-08-03T06:13:26.501Z,1.65
2022-08-03T06:15:53.472Z,1.83
2022-08-03T06:18:20.530Z,1.70
2022-08-03T06:20:49.483Z,1.70
2022-08-03T06:23:17.982Z,1.58
2022-08-03T06:25:46.001Z,1.63
2022-08-03T06:28:42.382Z,1.77
2022-08-03T06:31:01.773Z,1.77
2022-08-03T06:33:48.381Z,1.60
2022-08-03T06:36:16.310Z,1.60
2022-08-03T06:38:43.426Z,1.60
2022-08-03T06:41:10.440Z,1.75
2022-08-03T06:43:55.534Z,1.70
2022-08-03T06:46:24.922Z,1.85
2022-08-03T06:48:53.226Z,1.27
2022-08-03T06:51:20.308Z,1.50
2022-08-03T06:53:47.311Z,1.45
2022-08-03T06:56:14.578Z,1.30
2022-08-03T06:58:41.552Z,1.58
2022-08-03T07:01:08.537Z,1.35
2022-08-03T07:03:35.619Z,1.60
2022-08-03T07:06:03.489Z,1.10
2022-08-03T07:08:33.639Z,1.73
2022-08-03T07:11:01.688Z,1.55
2022-08-03T07:13:28.700Z,1.58
2022-08-03T07:15:56.615Z,1.05
2022-08-03T07:18:27.598Z,1.25
2022-08-03T07:20:59.699Z,1.50
2022-08-03T07:23:26.766Z,1.25
2022-08-03T07:25:53.747Z,1.40
2022-08-03T07:28:21.209Z,1.17
2022-08-03T07:30:48.437Z,1.20
2022-08-03T07:33:15.663Z,1.25
2022-08-03T07:35:42.805Z,1.20
2022-08-03T07:38:09.850Z,1.10
2022-08-03T07:40:36.809Z,0.98
2022-08-03T07:43:04.039Z,1.08
2022-08-03T07:45:34.510Z,1.02
2022-08-03T07:48:01.682Z,1.33
2022-08-03T07:50:28.694Z,1.10
2022-08-03T07:52:56.282Z,1.17
2022-08-03T07:55:25.999Z,1.20
2022-08-03T07:58:06.416Z,1.13
2022-08-03T08:00:34.152Z,1.30
2022-08-03T08:03:01.431Z,1.60
2022-08-03T08:05:29.622Z,1.02
2022-08-03T08:07:56.903Z,1.48
2022-08-03T08:10:24.185Z,1.33
2022-08-03T08:12:51.222Z,1.10
2022-08-03T08:15:18.322Z,1.30
2022-08-03T08:17:50.796Z,0.98
2022-08-03T08:20:31.319Z,1.08
2022-08-03T08:23:09.539Z,1.27
2022-08-03T08:25:52.148Z,1.70
2022-08-03T08:28:29.458Z,1.17
2022-08-03T08:30:59.291Z,1.55
2022-08-03T08:33:37.384Z,1.63
2022-08-03T08:36:15.356Z,1.75
2022-08-03T08:38:45.288Z,1.50
2022-08-03T08:41:13.986Z,1.08
2022-08-03T08:43:42.114Z,1.40
2022-08-03T08:46:13.165Z,1.52
2022-08-03T08:48:52.616Z,1.63
2022-08-03T08:51:21.557Z,1.63
2022-08-03T08:53:52.101Z,2.28
2022-08-03T08:56:22.908Z,1.90
2022-08-03T08:58:54.491Z,1.40
2022-08-03T09:01:22.067Z,1.52
2022-08-03T09:03:49.576Z,1.55
2022-08-03T09:06:17.429Z,1.50
2022-08-03T09:08:44.474Z,1.52
2022-08-03T09:11:12.223Z,1.60
2022-08-03T09:13:39.446Z,1.80
2022-08-03T09:16:11.265Z,1.70
2022-08-03T09:18:38.743Z,1.90
2022-08-03T09:21:36.000Z,1.60
2022-08-03T09:24:07.044Z,1.55
2022-08-03T09:26:38.018Z,1.35
2022-08-03T09:29:14.585Z,2.25
2022-08-03T09:31:46.228Z,1.50
2022-08-03T09:34:16.208Z,1.38
2022-08-03T09:36:46.913Z,1.80
2022-08-03T09:39:42.088Z,1.30
2022-08-03T09:42:17.477Z,1.60
2022-08-03T09:44:48.007Z,1.30
2022-08-03T09:47:28.410Z,1.38
2022-08-03T09:50:07.475Z,1.75
2022-08-03T09:52:39.136Z,1.50
2022-08-03T09:56:05.091Z,1.23
2022-08-03T09:58:09.482Z,1.30
2022-08-03T10:00:59.323Z,1.10
2022-08-03T10:03:28.829Z,1.88
2022-08-03T10:05:59.737Z,1.60
2022-08-03T10:08:27.452Z,1.33
2022-08-03T10:10:54.905Z,1.27
2022-08-03T10:13:23.509Z,1.10
2022-08-03T10:16:22.081Z,1.30
2022-08-03T10:18:37.989Z,1.23
2022-08-03T10:21:10.625Z,1.45
2022-08-03T10:23:40.535Z,1.20
2022-08-03T10:26:08.502Z,1.15
2022-08-03T10:28:44.542Z,1.40
2022-08-03T10:33:51.082Z,0.70
2022-08-03T10:36:23.927Z,0.93
2022-08-03T10:38:56.710Z,0.77
2022-08-03T10:41:37.833Z,1.40
2022-08-03T10:44:13.777Z,1.33
2022-08-03T10:46:44.934Z,1.10
2022-08-03T10:49:25.499Z,1.02
2022-08-03T10:52:12.915Z,1.02
2022-08-03T10:55:10.662Z,0.90
2022-08-03T10:57:45.066Z,0.70
2022-08-03T11:00:15.996Z,1.00
2022-08-03T11:03:04.551Z,0.82
2022-08-03T11:05:36.560Z,1.33
2022-08-03T11:08:31.157Z,0.77
2022-08-03T11:11:23.776Z,0.95
2022-08-03T11:14:00.714Z,0.65
2022-08-03T11:16:28.493Z,0.70
2022-08-03T11:19:00.048Z,0.70
2022-08-03T11:21:49.050Z,0.98
2022-08-03T11:24:37.844Z,0.73
2022-08-03T11:27:28.674Z,1.05
2022-08-03T11:30:04.579Z,0.90
2022-08-03T11:32:48.472Z,0.90
2022-08-03T11:35:17.187Z,0.70
2022-08-03T11:38:01.931Z,0.80
2022-08-03T11:40:50.677Z,1.00
2022-08-03T11:43:35.273Z,0.90
2022-08-03T11:46:09.139Z,0.90
2022-08-03T11:48:44.091Z,0.82
2022-08-03T11:51:21.705Z,0.80
2022-08-03T11:53:52.981Z,0.80
2022-08-03T11:56:20.508Z,1.15
2022-08-03T11:59:17.314Z,0.90
2022-08-03T12:01:36.395Z,0.70
2022-08-03T12:04:05.538Z,0.80
2022-08-03T12:06:52.739Z,1.00
2022-08-03T12:12:00.335Z,0.90
2022-08-03T12:14:48.600Z,1.05
2022-08-03T12:17:16.936Z,0.68
2022-08-03T12:19:45.169Z,1.00
2022-08-03T12:22:12.363Z,1.17
2022-08-03T12:24:43.770Z,0.75
2022-08-03T12:27:10.841Z,1.23
2022-08-03T12:29:37.959Z,0.90
2022-08-03T12:32:05.230Z,0.98
2022-08-03T12:34:50.867Z,0.90
2022-08-03T12:37:24.046Z,0.80
2022-08-03T12:40:02.272Z,0.75
2022-08-03T12:42:38.233Z,0.90
2022-08-03T12:45:27.088Z,0.70
2022-08-03T12:48:01.687Z,0.55
2022-08-03T12:50:34.216Z,0.77
2022-08-03T12:53:04.817Z,0.80
2022-08-03T12:55:57.943Z,0.65
2022-08-03T12:58:35.559Z,0.65
2022-08-03T13:01:09.856Z,0.80
2022-08-03T13:03:55.466Z,0.60
2022-08-03T13:06:25.033Z,0.70
2022-08-03T13:09:08.127Z,1.08
2022-08-03T13:11:55.508Z,0.80
2022-08-03T13:16:51.243Z,0.77
2022-08-03T13:19:18.331Z,0.82
2022-08-03T13:22:01.852Z,0.90
2022-08-03T13:24:32.740Z,0.80
2022-08-03T13:27:00.825Z,0.90
2022-08-03T13:29:47.960Z,0.77
2022-08-03T13:32:15.233Z,0.90
2022-08-03T13:34:42.361Z,1.10
2022-08-03T13:37:10.304Z,0.95
2022-08-03T13:39:57.360Z,0.75
2022-08-03T13:42:25.336Z,1.20
2022-08-03T13:44:52.451Z,0.90
2022-08-03T13:47:20.221Z,0.70
2022-08-03T13:49:59.815Z,0.70
2022-08-03T13:52:36.285Z,0.80
2022-08-03T13:55:05.927Z,0.70
2022-08-03T13:58:03.396Z,0.60
2022-08-03T14:00:26.378Z,0.70
2022-08-03T14:03:02.921Z,0.65
2022-08-03T14:05:33.003Z,0.70
2022-08-03T14:08:05.878Z,0.70
2022-08-03T14:10:34.691Z,1.38
2022-08-03T14:13:01.735Z,0.80
2022-08-03T14:15:28.931Z,0.70
2022-08-03T14:17:58.477Z,0.70
2022-08-03T14:20:38.070Z,0.70
2022-08-03T14:23:07.360Z,0.82
2022-08-03T14:25:50.479Z,0.50
2022-08-03T14:28:21.076Z,0.80
2022-08-03T14:30:48.793Z,0.90
2022-08-03T14:33:16.031Z,0.60
2022-08-03T14:35:43.559Z,0.73
2022-08-03T14:38:10.541Z,0.85
2022-08-03T14:40:37.838Z,0.80
2022-08-03T14:43:07.935Z,0.80
2022-08-03T14:45:34.961Z,0.98
2022-08-03T14:50:32.674Z,0.60
2022-08-03T14:50:51.684Z,0.80
2022-08-03T14:53:20.045Z,0.70
2022-08-03T14:55:51.322Z,0.73
2022-08-03T14:58:23.709Z,0.88
2022-08-03T15:00:52.352Z,0.70
2022-08-03T15:03:23.704Z,0.70
2022-08-03T15:05:55.510Z,0.60
2022-08-03T15:08:24.284Z,0.93
2022-08-03T15:10:51.280Z,1.05
2022-08-03T15:13:19.651Z,0.65
2022-08-03T15:15:49.892Z,0.70
2022-08-03T15:18:17.039Z,0.70
2022-08-03T15:20:45.941Z,0.70
2022-08-03T15:23:15.612Z,1.00
2022-08-03T15:26:27.884Z,1.05
2022-08-03T15:28:32.529Z,0.70
2022-08-03T15:31:00.742Z,0.60
2022-08-03T15:33:28.470Z,0.70
2022-08-03T15:35:56.710Z,0.70
2022-08-03T15:38:26.129Z,0.70
2022-08-03T15:40:59.281Z,0.90
2022-08-03T15:43:26.490Z,0.60
2022-08-03T15:48:43.869Z,0.80
2022-08-03T15:51:10.970Z,0.88
2022-08-03T15:53:38.672Z,0.60
2022-08-03T15:56:14.243Z,0.98
2022-08-03T15:59:09.726Z,0.60
2022-08-03T16:01:31.194Z,0.88
2022-08-03T16:03:58.260Z,0.90
2022-08-03T16:06:35.534Z,0.60
2022-08-03T16:09:05.348Z,0.77
2022-08-03T16:11:32.867Z,0.80
2022-08-03T16:14:13.691Z,1.20
2022-08-03T16:16:47.229Z,0.80
2022-08-03T16:19:14.228Z,0.82
2022-08-03T16:21:48.567Z,0.60
2022-08-03T16:24:17.267Z,0.77
2022-08-03T16:26:47.124Z,0.88
2022-08-03T16:29:22.643Z,0.90
2022-08-03T16:31:51.099Z,0.90
2022-08-03T16:34:19.008Z,1.02
2022-08-03T16:36:46.093Z,0.60
2022-08-03T16:39:13.264Z,0.88
2022-08-03T16:41:56.801Z,0.88
2022-08-03T16:44:27.903Z,0.80
2022-08-03T16:46:54.953Z,0.70
2022-08-03T16:49:54.832Z,1.02
2022-08-03T16:52:08.971Z,0.77
2022-08-03T16:54:40.011Z,0.85
2022-08-03T16:57:08.591Z,0.90
2022-08-03T16:59:36.722Z,0.60
2022-08-03T17:02:09.899Z,0.82
2022-08-03T17:04:40.049Z,0.63
2022-08-03T17:07:08.915Z,0.85
2022-08-03T17:09:38.151Z,0.70
2022-08-03T17:12:07.187Z,3.75
2022-08-03T17:14:34.300Z,4.57
2022-08-03T17:17:03.990Z,3.15
2022-08-03T17:19:32.971Z,1.17
2022-08-03T17:22:13.467Z,0.73
2022-08-03T17:25:07.914Z,0.70
2022-08-03T17:28:43.100Z,0.80
2022-08-03T17:30:25.273Z,0.70
2022-08-03T17:32:52.606Z,1.00
2022-08-03T17:35:24.672Z,1.00
2022-08-03T17:38:05.740Z,0.80
2022-08-03T17:40:34.893Z,0.90
2022-08-03T17:44:13.284Z,0.90
2022-08-03T17:45:54.782Z,1.17
2022-08-03T17:48:25.138Z,1.85
2022-08-03T17:51:00.215Z,1.40
2022-08-03T17:53:35.203Z,3.13
2022-08-03T17:56:42.690Z,2.78
2022-08-03T17:59:10.747Z,2.13
2022-08-03T18:02:30.003Z,1.10
2022-08-03T18:05:16.397Z,0.90
2022-08-03T18:07:59.233Z,1.20
2022-08-03T18:10:34.122Z,1.88
2022-08-03T18:13:14.270Z,1.10
2022-08-03T18:15:52.225Z,1.60
2022-08-03T18:18:32.740Z,1.73
2022-08-03T18:21:04.686Z,0.85
2022-08-03T18:23:36.735Z,0.98
2022-08-03T18:28:55.588Z,0.80
2022-08-03T18:32:00.175Z,1.45
2022-08-03T18:34:17.624Z,1.15
2022-08-03T18:37:00.859Z,1.05
2022-08-03T18:39:39.001Z,1.20
2022-08-03T18:42:26.885Z,1.00
2022-08-03T18:44:56.275Z,0.80
2022-08-03T18:47:50.928Z,1.10
2022-08-03T18:50:34.736Z,0.98
2022-08-03T18:53:19.350Z,1.30
2022-08-03T18:56:08.806Z,1.65
2022-08-03T18:58:47.008Z,1.40
2022-08-03T19:02:00.004Z,1.33
2022-08-03T19:04:46.731Z,1.13
2022-08-03T19:07:26.449Z,1.80
2022-08-03T19:09:58.504Z,1.00
2022-08-03T19:12:45.123Z,1.45
2022-08-03T19:15:15.737Z,1.00
2022-08-03T19:17:53.338Z,1.90
2022-08-03T19:20:26.951Z,1.30
2022-08-03T19:22:57.494Z,1.30
2022-08-03T19:25:34.758Z,1.00
2022-08-03T19:30:55.427Z,1.13
2022-08-03T19:33:25.833Z,1.08
2022-08-03T19:35:57.775Z,1.10
2022-08-03T19:38:28.441Z,1.55
2022-08-03T19:41:04.566Z,1.05
2022-08-03T19:43:59.087Z,1.10
2022-08-03T19:46:31.195Z,1.70
2022-08-03T19:49:14.642Z,1.38
2022-08-03T19:52:00.549Z,1.95
2022-08-03T19:54:54.049Z,1.50
2022-08-03T19:57:24.913Z,1.63
2022-08-03T19:59:54.050Z,1.45
2022-08-03T20:02:26.510Z,1.58
2022-08-03T20:04:56.206Z,1.75
2022-08-03T20:07:24.136Z,1.42
2022-08-03T20:09:56.074Z,1.17
2022-08-03T20:12:27.696Z,1.50
2022-08-03T20:14:57.643Z,1.30
2022-08-03T20:17:56.642Z,1.30
2022-08-03T20:22:45.480Z,1.60
2022-08-03T20:25:16.220Z,1.27
2022-08-03T20:28:07.791Z,1.48
2022-08-03T20:30:39.014Z,2.05
2022-08-03T20:33:09.806Z,1.60
2022-08-03T20:35:37.079Z,1.73
2022-08-03T20:38:04.127Z,1.80
2022-08-03T20:40:32.310Z,1.70
2022-08-03T20:43:00.019Z,1.52
2022-08-03T20:45:59.074Z,1.50
2022-08-03T20:48:17.475Z,1.58
2022-08-03T20:50:49.605Z,1.88
2022-08-03T20:53:57.443Z,1.70
2022-08-03T20:56:05.457Z,1.63
2022-08-03T20:58:36.001Z,2.00
2022-08-03T21:01:03.574Z,1.90
2022-08-03T21:03:41.039Z,1.80
2022-08-03T21:06:27.914Z,2.10
2022-08-03T21:09:05.438Z,1.95
2022-08-03T21:11:43.283Z,2.20
2022-08-03T21:13:02.204Z,1.40
2022-08-03T21:13:04.224Z,0.80
2022-08-03T21:14:30.478Z,1.90
2022-08-03T21:16:58.841Z,1.80
2022-08-03T21:19:30.539Z,1.90
2022-08-03T21:21:58.701Z,2.13
2022-08-03T21:24:30.754Z,2.08
2022-08-03T21:26:58.421Z,1.83
2022-08-03T21:29:25.518Z,1.60
2022-08-03T21:31:52.557Z,2.05
2022-08-03T21:34:20.959Z,2.25
2022-08-03T21:36:48.010Z,1.80
2022-08-03T21:39:15.245Z,1.88
2022-08-03T21:41:42.360Z,1.70
2022-08-03T21:44:09.481Z,2.40
2022-08-03T21:46:39.220Z,1.90
2022-08-03T21:50:05.554Z,1.83
2022-08-03T21:52:06.952Z,1.90
2022-08-03T21:54:41.087Z,2.08
2022-08-03T21:57:19.801Z,1.92
2022-08-03T21:59:57.197Z,1.90
2022-08-03T22:02:31.380Z,1.63
2022-08-03T22:04:59.429Z,3.33
2022-08-03T22:07:28.708Z,2.17
2022-08-03T22:09:56.932Z,2.35
2022-08-03T22:12:27.769Z,2.35
2022-08-03T22:15:01.184Z,2.30
2022-08-03T22:17:55.080Z,2.95
2022-08-03T22:20:19.867Z,2.47
2022-08-03T22:22:55.217Z,2.40
2022-08-03T22:25:31.056Z,2.00
2022-08-03T22:28:01.656Z,2.10
2022-08-03T22:30:29.251Z,2.10
2022-08-03T22:32:56.757Z,2.40
2022-08-03T22:35:27.262Z,1.77
2022-08-03T22:37:58.894Z,2.42
2022-08-03T22:40:28.160Z,1.88
2022-08-03T22:42:56.646Z,1.60
2022-08-03T22:46:06.058Z,1.90
2022-08-03T22:48:20.079Z,1.98
2022-08-03T22:50:51.298Z,2.08
2022-08-03T22:53:21.159Z,2.10
2022-08-03T22:55:52.317Z,2.05
2022-08-03T22:58:21.348Z,2.08
2022-08-03T23:00:54.247Z,1.83
2022-08-03T23:03:58.949Z,2.35
2022-08-03T23:06:16.571Z,2.20
2022-08-03T23:08:47.879Z,1.67
2022-08-03T23:11:17.927Z,1.92
2022-08-03T23:13:47.355Z,3.47
2022-08-03T23:16:15.914Z,2.25
2022-08-03T23:18:58.713Z,1.92
2022-08-03T23:22:00.120Z,1.95
2022-08-03T23:24:25.986Z,2.08
2022-08-03T23:26:58.346Z,2.00
2022-08-03T23:29:28.904Z,1.67
2022-08-03T23:31:57.695Z,1.70
2022-08-03T23:34:44.584Z,1.85
2022-08-03T23:37:14.823Z,1.83
2022-08-03T23:39:47.147Z,2.15
2022-08-03T23:42:18.229Z,1.88
2022-08-03T23:44:47.163Z,1.80
2022-08-03T23:47:14.562Z,2.42
2022-08-03T23:49:41.867Z,1.67
2022-08-03T23:52:39.564Z,1.77
2022-08-03T23:55:34.315Z,1.98
2022-08-03T23:58:28.443Z,1.90
